Time;durP1;ratioP1;P1;durP2;ratioP2;P2;SDS_P1;SDS_P2;PMS_P1;PMS_P2;Temp;Humidity;BMP_temperature;BMP_pressure;BME280_temperature;BME280_humidity;BME280_pressure;Samples;Min_cycle;Max_cycle;Signal;HPM_P1;HPM_P2
2022/06/22 00:02:27;;;;;;;6.83;3.93;;;29.00;42.30;;;;;;5025472;28;20448;-45
2022/06/22 00:05:01;;;;;;;4.13;3.57;;;29.10;42.60;;;;;;5022936;28;20436;-48
2022/06/22 00:07:45;;;;;;;5.77;3.40;;;29.00;42.60;;;;;;5027772;28;20482;-45
2022/06/22 00:10:20;;;;;;;3.87;3.57;;;29.10;42.70;;;;;;5028924;28;20460;-44
2022/06/22 00:12:54;;;;;;;3.70;3.50;;;29.00;42.70;;;;;;5025611;28;20455;-45
2022/06/22 00:15:39;;;;;;;4.33;4.03;;;29.00;42.70;;;;;;5027191;28;20454;-45
2022/06/22 00:18:37;;;;;;;3.93;3.63;;;29.00;42.90;;;;;;5027783;28;20540;-45
2022/06/22 00:21:16;;;;;;;7.00;3.93;;;28.90;43.20;;;;;;5022652;28;20450;-46
2022/06/22 00:23:47;;;;;;;4.10;3.80;;;28.80;43.40;;;;;;5025323;28;20536;-44
2022/06/22 00:26:25;;;;;;;4.20;3.90;;;28.80;43.70;;;;;;5026022;28;20447;-45
2022/06/22 00:29:05;;;;;;;3.80;3.40;;;28.40;45.20;;;;;;5023781;28;20439;-44
2022/06/22 00:31:43;;;;;;;6.03;3.80;;;28.30;45.00;;;;;;5027252;28;20455;-44
2022/06/22 00:34:09;;;;;;;4.57;4.20;;;28.20;45.40;;;;;;5024956;28;20440;-44
2022/06/22 00:36:41;;;;;;;4.30;3.90;;;28.30;45.30;;;;;;5029184;28;21220;-45
2022/06/22 00:39:42;;;;;;;4.43;4.13;;;28.30;45.40;;;;;;5023561;28;20299;-44
2022/06/22 00:42:18;;;;;;;5.10;4.43;;;28.00;46.00;;;;;;5022674;28;21111;-43
2022/06/22 00:45:07;;;;;;;6.40;4.83;;;28.00;46.00;;;;;;5011004;28;22288;-44
2022/06/22 00:47:42;;;;;;;5.83;4.47;;;28.00;45.70;;;;;;5021601;28;20470;-44
2022/06/22 00:50:24;;;;;;;4.37;4.07;;;27.90;45.80;;;;;;5023403;28;20803;-48
2022/06/22 00:53:04;;;;;;;4.63;4.23;;;27.90;45.70;;;;;;5023428;28;20469;-47
2022/06/22 00:55:39;;;;;;;3.57;3.27;;;28.10;45.30;;;;;;5026239;28;20510;-45
2022/06/22 00:58:07;;;;;;;4.30;4.00;;;28.20;44.90;;;;;;5022741;28;20527;-47
2022/06/22 01:00:38;;;;;;;5.17;4.43;;;28.10;44.80;;;;;;5020600;28;20472;-47
2022/06/22 01:03:18;;;;;;;5.43;5.03;;;27.90;45.40;;;;;;5023403;28;20452;-45
2022/06/22 01:05:53;;;;;;;4.37;4.00;;;27.80;45.70;;;;;;5024409;28;20494;-47
2022/06/22 01:08:31;;;;;;;5.60;4.20;;;27.50;46.40;;;;;;5027122;28;20446;-44
2022/06/22 01:14:08;;;;;;;5.43;4.93;;;27.70;46.20;;;;;;5030750;28;20451;-44
2022/06/22 01:16:38;;;;;;;5.20;4.70;;;27.80;46.10;;;;;;5024843;28;20444;-44
2022/06/22 01:19:23;;;;;;;4.87;4.10;;;27.90;45.80;;;;;;5025826;28;20841;-44
2022/06/22 01:22:04;;;;;;;4.30;3.70;;;28.00;45.50;;;;;;5026270;28;20987;-44
2022/06/22 01:25:21;;;;;;;4.20;3.83;;;28.10;45.40;;;;;;5026462;28;20498;-44
2022/06/22 01:27:47;;;;;;;4.30;3.90;;;28.10;45.30;;;;;;4990320;28;20456;-44
2022/06/22 01:30:28;;;;;;;5.17;4.10;;;28.10;45.30;;;;;;5024722;28;20518;-45
2022/06/22 01:32:55;;;;;;;4.40;4.10;;;28.20;45.20;;;;;;5025215;28;20885;-45
2022/06/22 01:35:31;;;;;;;4.40;4.00;;;28.20;45.10;;;;;;5021544;28;20451;-45
2022/06/22 01:37:57;;;;;;;3.50;3.30;;;28.30;45.10;;;;;;5025272;28;20496;-44
2022/06/22 01:40:38;;;;;;;4.60;4.00;;;28.30;45.10;;;;;;5023830;28;20444;-44
2022/06/22 01:43:15;;;;;;;4.93;4.43;;;28.30;45.00;;;;;;5026062;28;20451;-45
2022/06/22 01:46:10;;;;;;;4.10;3.80;;;28.30;44.90;;;;;;5018669;28;21406;-45
2022/06/22 01:49:05;;;;;;;4.70;4.30;;;28.30;44.80;;;;;;4999418;28;21606;-45
2022/06/22 01:51:41;;;;;;;3.97;3.67;;;28.40;44.70;;;;;;5021290;28;20495;-44
2022/06/22 01:54:10;;;;;;;5.67;4.20;;;28.40;44.70;;;;;;5026377;28;20450;-44
2022/06/22 01:56:47;;;;;;;4.87;3.90;;;28.40;44.60;;;;;;5017771;28;20486;-44
2022/06/22 01:59:59;;;;;;;4.63;4.33;;;28.20;45.10;;;;;;5026222;28;20541;-46
2022/06/22 02:03:12;;;;;;;4.30;3.90;;;28.10;45.30;;;;;;5012149;28;20501;-44
2022/06/22 02:05:41;;;;;;;5.47;4.90;;;28.10;45.30;;;;;;4941357;29;20459;-44
2022/06/22 02:08:12;;;;;;;4.47;4.17;;;28.00;45.90;;;;;;5021535;28;20597;-44
2022/06/22 02:10:38;;;;;;;4.27;3.93;;;27.90;46.20;;;;;;5030366;28;20459;-46
2022/06/22 02:13:28;;;;;;;5.30;4.80;;;27.90;46.30;;;;;;5027851;28;20523;-46
2022/06/22 02:16:22;;;;;;;5.17;4.73;;;27.90;46.80;;;;;;5025169;28;20208;-47
2022/06/22 02:18:51;;;;;;;4.87;4.47;;;27.60;47.90;;;;;;5017748;28;20495;-46
2022/06/22 02:21:24;;;;;;;6.00;4.70;;;27.00;49.10;;;;;;5024376;28;20506;-44
2022/06/22 02:24:02;;;;;;;4.73;4.43;;;26.80;49.50;;;;;;5028918;28;20447;-47
2022/06/22 02:26:52;;;;;;;4.73;4.30;;;27.00;49.20;;;;;;5029442;28;20455;-47
2022/06/22 02:29:21;;;;;;;8.23;4.60;;;27.20;48.60;;;;;;5029591;28;20456;-45
2022/06/22 02:31:48;;;;;;;4.83;4.47;;;27.40;48.30;;;;;;5025469;28;20451;-45
2022/06/22 02:34:16;;;;;;;5.90;4.70;;;27.50;48.10;;;;;;5028299;28;20501;-48
2022/06/22 02:36:45;;;;;;;4.73;4.33;;;27.60;48.10;;;;;;5030151;28;20433;-48
2022/06/22 02:39:13;;;;;;;6.63;4.73;;;27.60;47.90;;;;;;5028958;28;20506;-48
2022/06/22 02:44:33;;;;;;;4.33;3.93;;;27.80;47.50;;;;;;5028471;28;20511;-47
2022/06/22 02:47:18;;;;;;;4.30;3.80;;;27.80;47.30;;;;;;5028755;28;20561;-44
2022/06/22 02:49:55;;;;;;;4.70;4.20;;;27.90;47.30;;;;;;5028680;28;20929;-48
2022/06/22 02:52:26;;;;;;;4.93;4.50;;;27.90;47.10;;;;;;5019434;28;20546;-45
2022/06/22 02:54:55;;;;;;;4.40;4.17;;;27.90;46.90;;;;;;5030402;28;20537;-45
2022/06/22 02:57:57;;;;;;;4.37;3.97;;;27.90;47.10;;;;;;5027443;28;20818;-45
2022/06/22 03:00:41;;;;;;;5.50;5.00;;;27.90;47.30;;;;;;5023792;28;20542;-45
2022/06/22 03:03:12;;;;;;;4.63;4.23;;;27.80;47.60;;;;;;5020766;28;20519;-44
2022/06/22 03:05:39;;;;;;;7.27;4.93;;;27.60;48.10;;;;;;5019269;28;20468;-45
2022/06/22 03:08:06;;;;;;;5.03;4.43;;;27.60;48.10;;;;;;5017578;28;20537;-43
2022/06/22 03:10:39;;;;;;;4.47;4.17;;;27.20;49.00;;;;;;5025034;28;20927;-43
2022/06/22 03:13:04;;;;;;;5.00;4.63;;;27.20;49.10;;;;;;5026891;28;20451;-45
2022/06/22 03:15:34;;;;;;;5.83;4.67;;;27.40;49.10;;;;;;5020657;28;20440;-44
2022/06/22 03:18:01;;;;;;;4.50;4.10;;;27.40;49.10;;;;;;5025779;28;20282;-48
2022/06/22 03:20:32;;;;;;;5.20;4.73;;;27.40;49.30;;;;;;5022152;28;20463;-45
2022/06/22 03:23:20;;;;;;;5.27;4.37;;;27.40;49.20;;;;;;5023486;28;20517;-44
2022/06/22 03:25:58;;;;;;;4.37;4.07;;;27.50;49.30;;;;;;5027780;28;20451;-45
2022/06/22 03:28:37;;;;;;;6.10;4.90;;;27.60;49.40;;;;;;5023421;28;20497;-44
2022/06/22 03:31:11;;;;;;;5.23;4.73;;;27.60;49.30;;;;;;5026214;28;20439;-44
2022/06/22 03:33:44;;;;;;;4.83;4.53;;;27.10;50.10;;;;;;5023759;28;20448;-44
2022/06/22 03:36:17;;;;;;;6.70;4.80;;;27.00;50.40;;;;;;5027299;28;20447;-44
2022/06/22 03:38:54;;;;;;;4.90;4.53;;;27.00;50.40;;;;;;5032201;28;20578;-44
2022/06/22 03:41:25;;;;;;;6.50;4.77;;;27.00;49.90;;;;;;5025011;28;20455;-44
2022/06/22 03:44:00;;;;;;;5.13;4.70;;;26.90;50.20;;;;;;5023840;28;20479;-43
2022/06/22 03:46:50;;;;;;;5.27;4.83;;;27.00;50.20;;;;;;5028225;28;20439;-44
2022/06/22 03:49:29;;;;;;;6.30;5.80;;;27.00;50.10;;;;;;5032051;28;20490;-45
2022/06/22 03:52:09;;;;;;;5.67;4.87;;;27.10;50.00;;;;;;5020829;28;20451;-44
2022/06/22 03:54:44;;;;;;;6.67;4.90;;;27.20;49.90;;;;;;5026278;28;20497;-44
2022/06/22 03:57:13;;;;;;;7.57;6.00;;;27.20;49.90;;;;;;5026027;28;20478;-47
2022/06/22 03:59:44;;;;;;;5.90;5.40;;;27.10;50.20;;;;;;5025453;28;20506;-44
2022/06/22 04:02:10;;;;;;;6.03;5.53;;;27.10;50.00;;;;;;5030500;28;20443;-43
2022/06/22 04:04:36;;;;;;;7.10;5.20;;;27.20;49.80;;;;;;5026356;28;21000;-45
2022/06/22 04:07:02;;;;;;;8.47;5.10;;;27.20;49.80;;;;;;5028260;28;20220;-43
2022/06/22 04:09:29;;;;;;;6.20;4.60;;;27.30;49.80;;;;;;5022839;28;20342;-45
2022/06/22 04:12:02;;;;;;;5.90;4.97;;;27.30;49.80;;;;;;5020514;28;20471;-44
2022/06/22 04:14:51;;;;;;;5.20;4.80;;;27.30;49.80;;;;;;5027797;28;20937;-43
2022/06/22 04:17:33;;;;;;;5.33;4.53;;;27.40;49.80;;;;;;5010376;28;20458;-44
2022/06/22 04:20:50;;;;;;;5.97;4.80;;;27.40;49.50;;;;;;5027335;28;20443;-44
2022/06/22 04:23:30;;;;;;;6.07;5.20;;;27.50;49.40;;;;;;5002328;28;20490;-44
2022/06/22 04:26:06;;;;;;;5.87;4.97;;;27.60;49.80;;;;;;5028856;28;20455;-43
2022/06/22 04:28:34;;;;;;;7.07;4.97;;;27.60;49.80;;;;;;5029456;28;20522;-44
2022/06/22 04:31:02;;;;;;;7.87;5.67;;;27.70;49.70;;;;;;5034435;28;20775;-45
2022/06/22 04:33:35;;;;;;;5.53;5.03;;;27.70;49.30;;;;;;5021819;28;20454;-44
2022/06/22 04:36:10;;;;;;;4.93;4.53;;;27.80;49.10;;;;;;5022236;28;20454;-44
2022/06/22 04:39:00;;;;;;;5.00;4.60;;;27.90;49.10;;;;;;5014033;28;20502;-45
2022/06/22 04:41:38;;;;;;;8.47;5.10;;;27.90;49.50;;;;;;5021386;28;20539;-45
2022/06/22 04:44:15;;;;;;;6.23;5.27;;;27.90;49.60;;;;;;5020296;28;20459;-44
2022/06/22 04:46:47;;;;;;;7.20;4.40;;;28.00;49.70;;;;;;5025482;28;20451;-44
2022/06/22 04:49:18;;;;;;;5.70;5.20;;;28.00;50.00;;;;;;5025173;28;20436;-43
2022/06/22 04:51:56;;;;;;;6.07;5.60;;;28.00;50.30;;;;;;5026179;28;20447;-44
2022/06/22 04:54:34;;;;;;;5.73;5.23;;;28.10;50.20;;;;;;5025819;28;20444;-45
2022/06/22 04:57:11;;;;;;;4.90;4.50;;;28.10;50.10;;;;;;5025397;28;20443;-44
2022/06/22 04:59:38;;;;;;;6.90;5.10;;;28.10;49.90;;;;;;5028015;28;20884;-44
2022/06/22 05:02:09;;;;;;;5.67;5.23;;;28.20;49.90;;;;;;5023866;28;20483;-44
2022/06/22 05:04:39;;;;;;;6.57;5.70;;;28.10;49.80;;;;;;5024198;28;20451;-45
2022/06/22 05:07:23;;;;;;;5.67;5.27;;;28.10;49.90;;;;;;5026805;28;20450;-43
2022/06/22 05:09:54;;;;;;;6.57;5.97;;;28.10;49.90;;;;;;5027387;28;20943;-44
2022/06/22 05:12:24;;;;;;;6.57;5.60;;;28.10;49.90;;;;;;5025559;28;20551;-44
2022/06/22 05:14:52;;;;;;;6.63;6.00;;;28.10;50.00;;;;;;5026330;28;20428;-45
2022/06/22 05:17:34;;;;;;;5.90;5.50;;;28.20;49.90;;;;;;5025706;28;20451;-44
2022/06/22 05:20:25;;;;;;;5.90;5.30;;;28.20;49.80;;;;;;5024587;28;20455;-44
2022/06/22 05:22:54;;;;;;;7.80;5.50;;;28.20;49.80;;;;;;5019755;28;20452;-44
2022/06/22 05:25:19;;;;;;;7.30;5.10;;;28.20;49.90;;;;;;5024744;28;20448;-44
2022/06/22 05:28:06;;;;;;;5.80;5.20;;;28.30;49.80;;;;;;5028824;28;20447;-45
2022/06/22 05:30:40;;;;;;;6.53;5.80;;;28.20;49.80;;;;;;5020288;28;20274;-45
2022/06/22 05:33:12;;;;;;;10.30;5.77;;;28.20;49.80;;;;;;5016534;28;20448;-45
2022/06/22 05:36:04;;;;;;;6.23;5.63;;;28.20;50.00;;;;;;5022883;28;20785;-48
2022/06/22 05:38:31;;;;;;;5.80;5.20;;;28.20;50.00;;;;;;5019328;28;20511;-46
2022/06/22 05:40:59;;;;;;;6.73;5.57;;;28.30;50.00;;;;;;5029384;28;20506;-44
2022/06/22 05:43:24;;;;;;;6.13;5.70;;;28.30;50.10;;;;;;5029680;28;21018;-44
2022/06/22 05:45:57;;;;;;;5.97;5.37;;;28.40;50.00;;;;;;5027472;28;20582;-43
2022/06/22 05:48:26;;;;;;;6.93;6.33;;;28.40;50.00;;;;;;5024766;28;20246;-48
2022/06/22 05:51:36;;;;;;;6.30;5.80;;;28.40;49.90;;;;;;5029574;28;20448;-45
2022/06/22 05:54:10;;;;;;;6.17;5.40;;;28.40;50.00;;;;;;5018799;28;20451;-48
2022/06/22 05:56:45;;;;;;;6.83;6.23;;;28.40;49.90;;;;;;5027944;28;20488;-48
2022/06/22 05:59:46;;;;;;;6.87;6.07;;;28.40;50.10;;;;;;5023483;28;20491;-48
2022/06/22 06:02:37;;;;;;;7.37;6.60;;;28.30;50.10;;;;;;4977439;28;20456;-48
2022/06/22 06:05:23;;;;;;;7.27;6.40;;;28.40;49.90;;;;;;5023920;28;20476;-48
2022/06/22 06:07:53;;;;;;;9.30;6.50;;;28.40;49.70;;;;;;5013121;28;20451;-48
2022/06/22 06:10:25;;;;;;;9.17;6.43;;;28.50;49.70;;;;;;5031636;28;20440;-47
2022/06/22 06:13:01;;;;;;;8.27;6.60;;;28.50;49.80;;;;;;5029192;28;20464;-49
2022/06/22 06:15:32;;;;;;;11.63;6.73;;;28.60;49.60;;;;;;5026424;28;20451;-49
2022/06/22 06:17:59;;;;;;;7.87;6.33;;;28.60;49.40;;;;;;5027947;28;20511;-46
2022/06/22 06:20:35;;;;;;;7.70;6.37;;;28.70;49.30;;;;;;5029471;28;20514;-50
2022/06/22 06:23:47;;;;;;;6.87;6.27;;;28.60;49.70;;;;;;5029094;28;20448;-49
2022/06/22 06:29:38;;;;;;;6.60;6.00;;;28.60;49.70;;;;;;5021775;28;20497;-49
2022/06/22 06:32:55;;;;;;;7.77;6.50;;;28.60;49.40;;;;;;5028386;28;20444;-46
2022/06/22 06:35:45;;;;;;;6.73;6.13;;;28.60;49.70;;;;;;4984481;28;20466;-46
2022/06/22 06:38:36;;;;;;;6.13;5.73;;;28.60;49.70;;;;;;5016955;28;20499;-46
2022/06/22 06:41:22;;;;;;;5.93;5.43;;;28.60;49.50;;;;;;5016752;28;20845;-50
2022/06/22 06:43:53;;;;;;;5.80;5.30;;;28.70;49.20;;;;;;5026701;28;20456;-48
2022/06/22 06:46:30;;;;;;;6.73;6.10;;;28.80;49.10;;;;;;5024268;28;20608;-47
2022/06/22 06:49:19;;;;;;;7.60;5.70;;;28.90;48.80;;;;;;5022336;28;20538;-48
2022/06/22 06:51:55;;;;;;;6.10;5.50;;;28.80;48.50;;;;;;5029144;28;20509;-46
2022/06/22 06:54:25;;;;;;;8.73;6.67;;;28.90;48.60;;;;;;5026811;28;20443;-45
2022/06/22 06:56:54;;;;;;;7.73;6.83;;;28.90;48.20;;;;;;5026634;28;20943;-46
2022/06/22 06:59:24;;;;;;;7.43;6.37;;;28.90;48.10;;;;;;5028236;28;21231;-45
2022/06/22 07:01:50;;;;;;;6.57;5.97;;;28.90;48.20;;;;;;5019944;28;20445;-45
2022/06/22 07:04:30;;;;;;;6.50;5.90;;;28.80;48.10;;;;;;5017893;28;20470;-47
2022/06/22 07:07:13;;;;;;;5.83;5.43;;;28.90;48.20;;;;;;5020372;28;20477;-45
2022/06/22 07:09:40;;;;;;;7.33;6.67;;;28.90;48.50;;;;;;5024666;28;20467;-47
2022/06/22 07:12:09;;;;;;;7.83;7.13;;;28.90;48.70;;;;;;5023340;28;20436;-46
2022/06/22 07:14:39;;;;;;;9.20;8.10;;;29.00;49.30;;;;;;5000506;28;20543;-46
2022/06/22 07:17:11;;;;;;;8.13;6.60;;;28.90;51.30;;;;;;5020108;28;20459;-46
2022/06/22 07:19:40;;;;;;;8.93;7.87;;;29.00;50.50;;;;;;5018465;28;20537;-45
2022/06/22 07:22:18;;;;;;;10.20;8.50;;;28.90;51.40;;;;;;5020611;28;20448;-46
2022/06/22 07:24:55;;;;;;;9.37;8.37;;;29.00;52.60;;;;;;5027347;28;20938;-45
2022/06/22 07:27:26;;;;;;;8.70;7.90;;;28.90;52.90;;;;;;5025203;28;20451;-45
2022/06/22 07:30:08;;;;;;;8.63;7.73;;;28.90;52.80;;;;;;5022725;28;21103;-45
2022/06/22 07:32:48;;;;;;;9.87;7.30;;;28.90;53.60;;;;;;5017321;28;20456;-45
2022/06/22 07:35:24;;;;;;;8.80;7.73;;;28.90;54.10;;;;;;5027560;28;20823;-45
2022/06/22 07:38:12;;;;;;;10.27;8.03;;;28.90;54.20;;;;;;5027729;28;20505;-45
2022/06/22 07:40:39;;;;;;;12.00;8.50;;;28.80;54.30;;;;;;5021142;28;20448;-45
2022/06/22 07:43:07;;;;;;;8.70;7.80;;;28.80;53.90;;;;;;5009875;28;20445;-47
2022/06/22 07:45:33;;;;;;;8.80;7.93;;;28.70;53.90;;;;;;5014828;28;20444;-45
2022/06/22 07:48:13;;;;;;;8.73;7.93;;;28.70;54.20;;;;;;5025024;28;20447;-46
2022/06/22 07:50:52;;;;;;;8.23;7.43;;;28.70;54.60;;;;;;5028660;28;20506;-46
2022/06/22 07:53:47;;;;;;;9.37;8.23;;;28.70;55.10;;;;;;5007179;28;20448;-45
2022/06/22 07:56:19;;;;;;;7.40;6.77;;;28.60;54.70;;;;;;4978143;28;20535;-45
2022/06/22 07:59:07;;;;;;;8.53;7.70;;;28.50;54.60;;;;;;5023106;28;20557;-45
2022/06/22 08:01:41;;;;;;;9.50;8.00;;;28.50;54.90;;;;;;5022155;28;20459;-45
2022/06/22 08:04:09;;;;;;;9.13;8.00;;;28.40;54.50;;;;;;5022969;28;20448;-46
2022/06/22 08:06:48;;;;;;;10.43;7.37;;;28.40;54.40;;;;;;5023989;28;20428;-46
2022/06/22 08:09:16;;;;;;;6.73;6.13;;;28.40;54.40;;;;;;5022348;28;20447;-49
2022/06/22 08:12:05;;;;;;;11.50;6.80;;;28.40;53.80;;;;;;5032146;28;20492;-47
2022/06/22 08:14:41;;;;;;;11.00;6.90;;;28.10;53.60;;;;;;5032285;28;20951;-46
2022/06/22 08:17:19;;;;;;;14.40;6.80;;;28.00;54.10;;;;;;5029719;28;20958;-46
2022/06/22 08:19:44;;;;;;;13.63;7.10;;;27.80;54.50;;;;;;5025717;28;20523;-47
2022/06/22 08:22:12;;;;;;;8.30;6.57;;;28.10;54.60;;;;;;5031088;28;20467;-47
2022/06/22 08:24:45;;;;;;;7.73;7.07;;;28.40;53.40;;;;;;5021587;28;20204;-47
2022/06/22 08:27:16;;;;;;;7.43;6.70;;;28.50;53.40;;;;;;5028348;28;20458;-45
2022/06/22 08:29:42;;;;;;;7.70;7.00;;;28.50;53.60;;;;;;5031182;28;20837;-46
2022/06/22 08:32:21;;;;;;;11.03;6.70;;;28.60;53.30;;;;;;5030390;28;20938;-46
2022/06/22 08:34:56;;;;;;;7.43;6.73;;;28.70;53.20;;;;;;5028438;28;20451;-44
2022/06/22 08:37:40;;;;;;;11.40;7.37;;;28.60;53.10;;;;;;5017272;28;20481;-47
2022/06/22 08:40:36;;;;;;;8.03;6.47;;;28.70;52.80;;;;;;5029820;28;20459;-49
2022/06/22 08:43:06;;;;;;;9.63;7.27;;;28.40;53.20;;;;;;5014627;28;20464;-47
2022/06/22 08:46:01;;;;;;;9.20;7.30;;;28.50;53.20;;;;;;5023502;28;20812;-48
2022/06/22 08:48:51;;;;;;;8.43;7.60;;;28.70;52.40;;;;;;5029210;28;20455;-48
2022/06/22 08:51:29;;;;;;;7.50;6.17;;;28.70;52.70;;;;;;5026526;28;20551;-48
2022/06/22 08:54:16;;;;;;;8.87;6.37;;;28.80;52.50;;;;;;5028544;28;20435;-47
2022/06/22 08:57:03;;;;;;;10.90;7.00;;;28.90;52.10;;;;;;5019888;28;20814;-46
2022/06/22 08:59:37;;;;;;;10.50;8.33;;;28.90;52.00;;;;;;5024674;28;20571;-45
2022/06/22 09:02:02;;;;;;;9.57;8.30;;;28.80;52.30;;;;;;5017849;28;20857;-45
2022/06/22 09:05:01;;;;;;;8.63;7.93;;;28.60;52.60;;;;;;5023568;28;20498;-45
2022/06/22 09:07:58;;;;;;;9.30;8.40;;;28.80;52.40;;;;;;5033383;28;20272;-45
2022/06/22 09:10:45;;;;;;;8.50;7.60;;;28.70;52.50;;;;;;5030122;28;20451;-45
2022/06/22 09:13:38;;;;;;;7.40;6.70;;;28.70;52.70;;;;;;5029610;28;20537;-44
2022/06/22 09:16:28;;;;;;;12.37;8.47;;;28.70;52.60;;;;;;5031015;28;20905;-45
2022/06/22 09:19:08;;;;;;;8.27;7.57;;;28.80;52.60;;;;;;5018023;28;20510;-44
2022/06/22 09:22:10;;;;;;;8.20;7.50;;;28.70;52.40;;;;;;5006415;28;20894;-47
2022/06/22 09:25:08;;;;;;;9.73;7.77;;;28.70;52.20;;;;;;5022455;28;20464;-44
2022/06/22 09:27:42;;;;;;;7.93;7.23;;;28.80;51.40;;;;;;4992173;28;20493;-46
2022/06/22 09:30:17;;;;;;;9.73;8.27;;;28.90;50.50;;;;;;5029274;28;20443;-44
2022/06/22 09:33:16;;;;;;;9.37;7.80;;;28.90;51.00;;;;;;5029119;28;20816;-43
2022/06/22 09:35:48;;;;;;;8.93;7.30;;;28.90;51.20;;;;;;5023933;28;20436;-44
2022/06/22 09:38:22;;;;;;;9.87;6.87;;;28.90;51.30;;;;;;5024180;28;20487;-43
2022/06/22 09:41:35;;;;;;;8.00;7.40;;;29.00;51.00;;;;;;5028728;28;20455;-47
2022/06/22 09:44:30;;;;;;;8.00;7.20;;;29.00;51.20;;;;;;5013362;28;20547;-47
2022/06/22 09:47:33;;;;;;;8.23;6.70;;;29.10;50.80;;;;;;5022857;28;20483;-43
2022/06/22 09:50:11;;;;;;;8.47;7.00;;;29.20;50.60;;;;;;5024728;28;20777;-45
2022/06/22 09:53:01;;;;;;;8.50;7.60;;;29.20;50.50;;;;;;5020773;28;20539;-48
2022/06/22 09:58:19;;;;;;;10.53;9.23;;;29.30;50.40;;;;;;5016861;28;20499;-44
2022/06/22 10:00:57;;;;;;;14.33;10.10;;;29.40;50.50;;;;;;5025141;28;20444;-46
2022/06/22 10:03:42;;;;;;;10.50;8.07;;;29.40;50.50;;;;;;5014264;28;21046;-44
2022/06/22 10:06:43;;;;;;;9.20;8.30;;;29.50;50.50;;;;;;5023002;28;20460;-44
2022/06/22 10:09:30;;;;;;;8.30;7.50;;;29.60;50.40;;;;;;5027419;28;20889;-45
2022/06/22 10:12:15;;;;;;;7.83;7.10;;;29.60;50.40;;;;;;5027070;28;20456;-43
2022/06/22 10:15:02;;;;;;;8.93;7.60;;;29.60;50.10;;;;;;5015381;28;20444;-44
2022/06/22 10:17:53;;;;;;;10.37;7.00;;;29.60;50.00;;;;;;5027225;28;20797;-43
2022/06/22 10:20:41;;;;;;;9.20;7.27;;;29.70;49.90;;;;;;5024808;28;20455;-43
2022/06/22 10:23:55;;;;;;;9.60;8.17;;;29.60;49.90;;;;;;5023988;28;20998;-43
2022/06/22 10:26:42;;;;;;;8.57;7.70;;;29.60;50.10;;;;;;4954964;28;20967;-43
2022/06/22 10:29:17;;;;;;;10.93;7.63;;;29.60;50.30;;;;;;5011634;28;20456;-43
2022/06/22 10:32:28;;;;;;;7.83;7.13;;;29.60;50.50;;;;;;5017294;28;20480;-43
2022/06/22 10:35:25;;;;;;;9.47;8.57;;;29.60;50.40;;;;;;4984149;28;20452;-43
2022/06/22 10:37:59;;;;;;;12.80;7.40;;;29.70;50.00;;;;;;5024318;28;20468;-43
2022/06/22 10:46:23;;;;;;;9.10;8.30;;;29.40;50.30;;;;;;5016220;28;20447;-43
2022/06/22 10:49:07;;;;;;;8.37;7.57;;;29.30;50.40;;;;;;5023529;28;20475;-45
2022/06/22 10:51:42;;;;;;;10.07;9.17;;;29.30;50.60;;;;;;5018161;28;20450;-43
2022/06/22 10:54:31;;;;;;;9.90;9.03;;;29.30;51.20;;;;;;5027380;28;20447;-43
2022/06/22 10:57:46;;;;;;;11.23;10.33;;;29.30;52.00;;;;;;5024217;28;20486;-43
2022/06/22 11:00:20;;;;;;;15.13;10.73;;;28.90;53.80;;;;;;5007624;28;20568;-43
2022/06/22 11:03:09;;;;;;;12.33;10.63;;;28.80;54.10;;;;;;5026564;28;20452;-42
2022/06/22 11:05:58;;;;;;;11.73;9.90;;;28.70;54.10;;;;;;5026435;28;20586;-44
2022/06/22 11:08:23;;;;;;;11.90;10.80;;;28.70;54.30;;;;;;5008252;28;20458;-44
2022/06/22 11:11:25;;;;;;;13.37;12.10;;;28.50;55.70;;;;;;5027811;28;20444;-44
2022/06/22 11:14:18;;;;;;;12.17;10.90;;;28.50;55.50;;;;;;5026799;28;20236;-48
2022/06/22 11:17:32;;;;;;;13.13;11.77;;;28.40;57.00;;;;;;5023004;28;20546;-44
2022/06/22 11:20:37;;;;;;;11.00;9.77;;;28.20;56.60;;;;;;4982626;28;20454;-45
2022/06/22 11:23:11;;;;;;;9.27;8.47;;;28.10;57.30;;;;;;4985672;28;20856;-46
2022/06/22 11:32:21;;;;;;;9.83;9.07;;;27.90;56.80;;;;;;5027657;28;20462;-44
2022/06/22 11:35:08;;;;;;;8.60;7.73;;;28.10;56.30;;;;;;5021659;28;20458;-44
2022/06/22 11:38:05;;;;;;;9.27;8.37;;;28.00;56.40;;;;;;5024392;28;20445;-45
2022/06/22 11:40:46;;;;;;;8.23;7.57;;;28.20;55.90;;;;;;5021558;28;20507;-48
2022/06/22 11:43:29;;;;;;;8.87;8.07;;;28.20;55.90;;;;;;5026232;28;20947;-46
2022/06/22 11:46:25;;;;;;;9.37;8.57;;;28.20;56.30;;;;;;5028768;28;20451;-48
2022/06/22 11:49:11;;;;;;;10.30;9.27;;;28.40;55.30;;;;;;5024732;28;20452;-48
2022/06/22 11:52:06;;;;;;;9.43;8.63;;;28.50;55.50;;;;;;5024498;28;20455;-44
2022/06/22 11:54:38;;;;;;;8.63;7.80;;;28.60;55.70;;;;;;5026647;28;20479;-45
2022/06/22 11:57:28;;;;;;;9.87;8.87;;;28.60;56.20;;;;;;5026374;28;20448;-48
2022/06/22 12:00:16;;;;;;;11.00;9.90;;;28.70;55.80;;;;;;5022826;28;20517;-48
2022/06/22 12:03:09;;;;;;;8.67;7.93;;;28.70;55.60;;;;;;5026178;28;20453;-47
2022/06/22 12:05:55;;;;;;;9.23;8.40;;;28.70;55.40;;;;;;5027759;28;20465;-49
2022/06/22 12:08:23;;;;;;;9.90;7.60;;;28.70;55.00;;;;;;5024961;28;20440;-49
2022/06/22 12:11:17;;;;;;;12.27;7.30;;;28.70;55.20;;;;;;5028890;28;20444;-46
2022/06/22 12:17:08;;;;;;;8.30;7.50;;;28.80;55.70;;;;;;5021415;28;20508;-45
2022/06/22 12:20:29;;;;;;;7.97;7.17;;;28.90;55.20;;;;;;5024271;28;20490;-45
2022/06/22 12:23:14;;;;;;;8.17;7.40;;;29.00;54.70;;;;;;4927435;29;20988;-49
2022/06/22 12:26:04;;;;;;;7.20;6.70;;;29.10;54.80;;;;;;5024343;28;20535;-44
2022/06/22 12:29:01;;;;;;;8.20;7.50;;;29.10;54.80;;;;;;5027659;28;20444;-45
2022/06/22 12:31:39;;;;;;;7.83;7.33;;;29.20;55.20;;;;;;5030339;28;20881;-45
2022/06/22 12:34:25;;;;;;;7.73;7.03;;;29.10;54.60;;;;;;5022712;28;20939;-46
2022/06/22 12:36:56;;;;;;;8.20;6.90;;;29.20;54.60;;;;;;5023420;28;20518;-45
2022/06/22 12:39:48;;;;;;;7.10;6.40;;;29.20;54.00;;;;;;5029462;28;20492;-48
2022/06/22 12:42:16;;;;;;;8.60;7.20;;;29.20;54.00;;;;;;5017222;28;20463;-48
2022/06/22 12:44:48;;;;;;;6.80;6.30;;;29.20;54.00;;;;;;5027657;28;20511;-47
2022/06/22 12:47:56;;;;;;;8.00;7.30;;;29.20;53.80;;;;;;5026783;28;20601;-46
2022/06/22 12:50:53;;;;;;;8.83;7.40;;;29.20;54.30;;;;;;5020686;28;21371;-46
2022/06/22 12:53:54;;;;;;;7.27;6.60;;;29.30;54.20;;;;;;5026602;28;20443;-45
2022/06/22 12:56:34;;;;;;;8.07;7.47;;;29.30;54.70;;;;;;5023633;28;20888;-45
2022/06/22 12:59:04;;;;;;;8.50;7.70;;;29.40;54.90;;;;;;5024117;28;20495;-45
2022/06/22 13:01:31;;;;;;;7.90;7.03;;;29.40;54.80;;;;;;5027083;28;20458;-45
2022/06/22 13:04:02;;;;;;;7.80;7.20;;;29.40;54.70;;;;;;5024430;28;20451;-46
2022/06/22 13:06:31;;;;;;;8.53;7.83;;;29.50;54.70;;;;;;5022199;28;20805;-45
2022/06/22 13:08:57;;;;;;;8.57;7.80;;;29.50;54.70;;;;;;5025939;28;20436;-46
2022/06/22 13:11:25;;;;;;;10.63;9.20;;;29.50;54.50;;;;;;5024840;28;20816;-45
2022/06/22 13:14:31;;;;;;;9.17;8.17;;;29.50;54.30;;;;;;5025590;28;20487;-45
2022/06/22 13:17:17;;;;;;;8.47;7.80;;;29.20;55.00;;;;;;5023283;28;21021;-45
2022/06/22 13:19:57;;;;;;;10.23;9.23;;;29.00;56.20;;;;;;5013238;28;20574;-45
2022/06/22 13:22:44;;;;;;;9.17;8.37;;;28.90;56.70;;;;;;5023508;28;20570;-45
2022/06/22 13:25:42;;;;;;;8.67;7.87;;;29.00;56.70;;;;;;5025840;28;20436;-46
2022/06/22 13:28:43;;;;;;;8.77;7.80;;;29.10;56.60;;;;;;5027355;28;20455;-45
2022/06/22 13:31:23;;;;;;;8.67;7.83;;;29.20;56.20;;;;;;4992380;28;20475;-45
2022/06/22 13:33:56;;;;;;;9.30;8.50;;;29.30;56.30;;;;;;5024327;28;20459;-45
2022/06/22 13:36:40;;;;;;;8.70;8.00;;;29.30;56.60;;;;;;5029935;28;20440;-46
2022/06/22 13:39:15;;;;;;;9.43;8.63;;;29.20;55.80;;;;;;5029497;28;20545;-45
2022/06/22 13:42:09;;;;;;;8.83;8.13;;;29.00;56.20;;;;;;5030563;28;20525;-45
2022/06/22 13:44:59;;;;;;;8.70;8.00;;;29.00;56.90;;;;;;5019958;28;21544;-44
2022/06/22 13:47:37;;;;;;;10.13;8.40;;;28.90;57.40;;;;;;5030580;28;20563;-45
2022/06/22 13:50:33;;;;;;;9.30;8.50;;;29.00;57.40;;;;;;5029185;28;20977;-47
2022/06/22 13:53:16;;;;;;;9.20;8.40;;;29.00;57.20;;;;;;5021362;28;20470;-47
2022/06/22 13:56:02;;;;;;;12.57;10.23;;;28.90;56.90;;;;;;5023856;28;20478;-49
2022/06/22 13:58:42;;;;;;;8.93;8.13;;;29.00;57.00;;;;;;5026044;28;20491;-45
2022/06/22 14:01:35;;;;;;;10.27;9.37;;;28.50;58.00;;;;;;5030675;28;20446;-46
2022/06/22 14:04:12;;;;;;;9.40;8.60;;;28.70;57.90;;;;;;5013473;28;20497;-44
2022/06/22 14:06:49;;;;;;;9.80;8.90;;;28.70;57.60;;;;;;5024268;28;20473;-45
2022/06/22 14:09:19;;;;;;;9.67;8.87;;;28.80;57.40;;;;;;5024853;28;20475;-44
2022/06/22 14:12:01;;;;;;;11.87;10.53;;;28.60;58.20;;;;;;5027961;28;20963;-45
2022/06/22 14:14:33;;;;;;;10.17;9.30;;;28.60;57.90;;;;;;5028297;28;20463;-46
2022/06/22 14:16:59;;;;;;;13.87;12.60;;;28.60;58.10;;;;;;5027008;28;20498;-45
2022/06/22 14:19:56;;;;;;;10.87;9.87;;;28.70;58.70;;;;;;5026352;28;20559;-46
2022/06/22 14:22:45;;;;;;;12.40;11.40;;;28.60;58.90;;;;;;5017003;28;20225;-48